Time;durP1;ratioP1;P1;durP2;ratioP2;P2;SDS_P1;SDS_P2;PMS_P1;PMS_P2;Temp;Humidity;BMP_temperature;BMP_pressure;BME280_temperature;BME280_humidity;BME280_pressure;Samples;Min_cycle;Max_cycle;Signal;HPM_P1;HPM_P2
2023/03/05 06:00:28;;;;;;;29.97;21.03;;;5.30;97.20;;;;;;1744160;28;20632;-65
2023/03/05 06:01:21;;;;;;;28.63;22.13;;;5.30;97.20;;;;;;1748415;28;20285;-66
2023/03/05 06:02:13;;;;;;;32.28;22.90;;;5.30;97.20;;;;;;1747397;28;20687;-66
2023/03/05 06:03:04;;;;;;;27.63;21.15;;;5.20;97.20;;;;;;1748246;28;20206;-65
2023/03/05 06:03:56;;;;;;;33.00;22.33;;;5.30;97.20;;;;;;1748373;28;20223;-66
2023/03/05 06:04:46;;;;;;;33.40;25.92;;;5.30;97.20;;;;;;1748492;28;20849;-66
2023/03/05 06:05:37;;;;;;;33.20;26.23;;;5.30;97.20;;;;;;1748020;28;20569;-66
2023/03/05 06:06:29;;;;;;;30.77;24.67;;;5.30;97.20;;;;;;1748368;28;20198;-67
2023/03/05 06:07:20;;;;;;;34.65;26.27;;;5.30;97.20;;;;;;1745768;28;20202;-66
2023/03/05 06:08:11;;;;;;;34.90;26.20;;;5.30;97.20;;;;;;1746720;28;20191;-66
2023/03/05 06:09:02;;;;;;;32.65;24.55;;;5.30;97.20;;;;;;1748186;28;20451;-66
2023/03/05 06:09:54;;;;;;;28.30;22.17;;;5.30;97.20;;;;;;1746904;28;20198;-66
2023/03/05 06:10:51;;;;;;;28.92;22.15;;;5.20;97.20;;;;;;1747176;28;20472;-66
2023/03/05 06:11:43;;;;;;;28.13;21.83;;;5.20;97.20;;;;;;1742026;28;20199;-66
2023/03/05 06:12:34;;;;;;;28.70;21.42;;;5.20;97.20;;;;;;1747249;28;20206;-66
2023/03/05 06:13:26;;;;;;;27.57;22.17;;;5.20;97.20;;;;;;1747195;28;20198;-66
2023/03/05 06:14:16;;;;;;;33.83;20.45;;;5.20;97.20;;;;;;1741339;28;20210;-65
2023/03/05 06:15:09;;;;;;;25.27;19.93;;;5.20;97.20;;;;;;1741571;28;20297;-66
2023/03/05 06:16:03;;;;;;;28.42;20.40;;;5.20;97.20;;;;;;1741015;28;21085;-66
2023/03/05 06:16:55;;;;;;;29.15;20.15;;;5.20;97.20;;;;;;1741318;28;20289;-66
2023/03/05 06:17:46;;;;;;;27.70;20.98;;;5.20;97.20;;;;;;1741108;28;20214;-66
2023/03/05 06:18:38;;;;;;;27.05;20.60;;;5.20;97.20;;;;;;1741415;28;20221;-65
2023/03/05 06:19:29;;;;;;;31.27;22.27;;;5.20;97.20;;;;;;1741298;28;20210;-66
2023/03/05 06:20:22;;;;;;;28.57;20.30;;;5.20;97.20;;;;;;1746347;28;20191;-66
2023/03/05 06:21:15;;;;;;;28.02;20.92;;;5.20;97.20;;;;;;1748076;28;20194;-67
2023/03/05 06:22:07;;;;;;;30.05;21.70;;;5.20;97.20;;;;;;1748233;28;20205;-66
2023/03/05 06:22:58;;;;;;;28.40;21.13;;;5.20;97.20;;;;;;1748036;28;20359;-66
2023/03/05 06:23:50;;;;;;;27.77;21.40;;;5.20;97.20;;;;;;1748282;28;20210;-66
2023/03/05 06:24:41;;;;;;;28.58;20.30;;;5.20;97.20;;;;;;1748233;28;20202;-66
2023/03/05 06:25:33;;;;;;;25.50;20.07;;;5.20;97.20;;;;;;1748238;28;20199;-66
2023/03/05 06:26:24;;;;;;;27.77;20.08;;;5.20;97.20;;;;;;1747818;28;20289;-66
2023/03/05 06:27:16;;;;;;;25.27;20.30;;;5.20;97.20;;;;;;1748171;28;20278;-65
2023/03/05 06:28:07;;;;;;;28.83;19.67;;;5.20;97.20;;;;;;1747995;28;20577;-66
2023/03/05 06:28:59;;;;;;;27.13;20.43;;;5.20;97.20;;;;;;1748279;28;20229;-66
2023/03/05 06:29:52;;;;;;;30.15;19.42;;;5.30;97.20;;;;;;1747725;28;20680;-65
2023/03/05 06:30:43;;;;;;;28.65;20.90;;;5.30;97.20;;;;;;1748084;28;20237;-66
2023/03/05 06:31:36;;;;;;;27.23;20.40;;;5.30;97.20;;;;;;1748078;28;20202;-66
2023/03/05 06:32:27;;;;;;;26.73;19.42;;;5.30;97.20;;;;;;1747815;28;20217;-65
2023/03/05 06:33:19;;;;;;;27.98;19.40;;;5.30;97.20;;;;;;1748000;28;20230;-65
2023/03/05 06:34:11;;;;;;;28.17;20.70;;;5.30;97.20;;;;;;1748196;28;20717;-66
2023/03/05 06:35:02;;;;;;;26.15;19.95;;;5.40;97.20;;;;;;1748240;28;20223;-66
2023/03/05 06:35:53;;;;;;;24.70;18.30;;;5.40;97.20;;;;;;1747758;28;20225;-66
2023/03/05 06:36:44;;;;;;;23.35;18.45;;;5.40;97.20;;;;;;1748126;28;20479;-66
2023/03/05 06:37:36;;;;;;;26.23;19.30;;;5.40;97.20;;;;;;1747856;28;20648;-65
2023/03/05 06:38:26;;;;;;;27.67;19.23;;;5.40;97.20;;;;;;1747978;28;20210;-66
2023/03/05 06:39:18;;;;;;;29.13;20.30;;;5.40;97.20;;;;;;1748223;28;20281;-66
2023/03/05 06:40:10;;;;;;;25.40;19.45;;;5.40;97.20;;;;;;1747961;28;20667;-65
2023/03/05 06:41:04;;;;;;;28.48;19.02;;;5.40;97.20;;;;;;1748349;28;20285;-65
2023/03/05 06:41:55;;;;;;;28.08;18.90;;;5.40;97.20;;;;;;1748132;28;20203;-65
2023/03/05 06:42:46;;;;;;;26.20;18.83;;;5.40;97.20;;;;;;1747917;28;20281;-66
2023/03/05 06:43:39;;;;;;;28.90;18.95;;;5.40;97.20;;;;;;1748036;28;20685;-66
2023/03/05 06:44:31;;;;;;;24.15;19.02;;;5.40;97.20;;;;;;1748102;28;20290;-66
2023/03/05 06:45:22;;;;;;;26.15;18.10;;;5.50;97.20;;;;;;1748235;28;20247;-67
2023/03/05 06:46:14;;;;;;;26.70;18.90;;;5.50;97.20;;;;;;1747696;28;20194;-66
2023/03/05 06:47:09;;;;;;;23.08;18.38;;;5.50;97.20;;;;;;1748102;28;20194;-66
2023/03/05 06:48:00;;;;;;;23.63;18.52;;;5.50;97.20;;;;;;1747915;28;20215;-66
2023/03/05 06:48:52;;;;;;;26.30;18.47;;;5.50;97.20;;;;;;1748115;28;20285;-65
2023/03/05 06:49:43;;;;;;;26.05;19.70;;;5.50;97.20;;;;;;1748130;28;20621;-66
2023/03/05 06:50:35;;;;;;;24.60;19.10;;;5.50;97.20;;;;;;1747714;28;20594;-66
2023/03/05 06:51:27;;;;;;;27.77;19.40;;;5.50;97.20;;;;;;1748058;28;20198;-66
2023/03/05 06:52:19;;;;;;;29.38;20.45;;;5.50;97.20;;;;;;1747881;28;20190;-66
2023/03/05 06:53:10;;;;;;;27.75;19.85;;;5.50;97.20;;;;;;1747729;28;20202;-66
2023/03/05 06:54:04;;;;;;;27.23;18.60;;;5.40;97.20;;;;;;1748152;28;20194;-65
2023/03/05 06:54:54;;;;;;;26.95;19.20;;;5.40;97.20;;;;;;1748121;28;20258;-66
2023/03/05 06:55:46;;;;;;;24.83;19.80;;;5.40;97.20;;;;;;1747521;28;20202;-66
2023/03/05 06:56:39;;;;;;;27.60;19.42;;;5.40;97.20;;;;;;1747939;28;20225;-66
2023/03/05 06:57:30;;;;;;;27.17;19.58;;;5.40;97.20;;;;;;1747915;28;20672;-66
2023/03/05 06:58:21;;;;;;;26.17;20.00;;;5.40;97.20;;;;;;1747847;28;20198;-66
2023/03/05 06:59:15;;;;;;;25.55;18.70;;;5.40;97.20;;;;;;1748079;28;20209;-66
2023/03/05 07:00:08;;;;;;;25.00;19.23;;;5.40;97.20;;;;;;1748092;28;20213;-66
2023/03/05 07:01:00;;;;;;;25.13;18.92;;;5.40;97.20;;;;;;1747920;28;20221;-66
2023/03/05 07:01:51;;;;;;;26.92;18.58;;;5.40;97.20;;;;;;1747453;28;20283;-66
2023/03/05 07:02:44;;;;;;;26.33;18.93;;;5.50;97.20;;;;;;1747849;28;20195;-66
2023/03/05 07:03:35;;;;;;;27.52;19.33;;;5.50;97.20;;;;;;1747420;28;20198;-66
2023/03/05 07:04:27;;;;;;;24.25;19.20;;;5.50;97.20;;;;;;1748090;28;20206;-66
2023/03/05 07:05:18;;;;;;;29.40;18.88;;;5.50;97.20;;;;;;1748009;28;20198;-66
2023/03/05 07:06:11;;;;;;;23.03;17.87;;;5.50;97.20;;;;;;1747396;28;20190;-66
2023/03/05 07:07:02;;;;;;;24.98;17.70;;;5.50;97.20;;;;;;1747933;28;20472;-66
2023/03/05 07:07:54;;;;;;;24.70;18.30;;;5.60;97.20;;;;;;1747848;28;20221;-66
2023/03/05 07:08:45;;;;;;;22.77;18.73;;;5.60;97.20;;;;;;1747831;28;20213;-66
2023/03/05 07:09:41;;;;;;;26.73;19.00;;;5.60;97.20;;;;;;1748022;28;20198;-66
2023/03/05 07:10:37;;;;;;;24.38;18.15;;;5.60;97.20;;;;;;1747947;28;20464;-66
2023/03/05 07:11:30;;;;;;;27.17;18.50;;;5.60;97.20;;;;;;1748069;28;20191;-65
2023/03/05 07:12:20;;;;;;;26.00;19.38;;;5.60;97.20;;;;;;1748131;28;20327;-66
2023/03/05 07:13:12;;;;;;;23.40;18.13;;;5.60;97.20;;;;;;1747736;28;20227;-66
2023/03/05 07:14:03;;;;;;;23.63;17.98;;;5.60;97.20;;;;;;1748036;28;20210;-66
2023/03/05 07:14:55;;;;;;;22.73;17.87;;;5.60;97.20;;;;;;1747965;28;20202;-66
2023/03/05 07:15:45;;;;;;;26.10;18.15;;;5.70;97.20;;;;;;1747560;28;20886;-66
2023/03/05 07:16:37;;;;;;;24.97;17.73;;;5.70;97.20;;;;;;1747999;28;20587;-65
2023/03/05 07:17:29;;;;;;;24.40;17.52;;;5.70;97.20;;;;;;1748000;28;20218;-66
2023/03/05 07:18:22;;;;;;;24.58;18.33;;;5.70;97.20;;;;;;1747949;28;20296;-66
2023/03/05 07:19:12;;;;;;;23.23;17.20;;;5.70;97.20;;;;;;1748186;28;20206;-65
2023/03/05 07:20:05;;;;;;;26.30;17.27;;;5.70;97.20;;;;;;1748220;28;20218;-66
2023/03/05 07:21:01;;;;;;;23.80;17.55;;;5.70;97.20;;;;;;1748050;28;20237;-66
2023/03/05 07:21:52;;;;;;;25.20;17.85;;;5.70;97.20;;;;;;1747989;28;20570;-66
2023/03/05 07:22:43;;;;;;;26.98;18.45;;;5.70;97.20;;;;;;1748042;28;20206;-66
2023/03/05 07:23:36;;;;;;;24.10;17.10;;;5.80;97.20;;;;;;1747661;28;20206;-65
2023/03/05 07:24:28;;;;;;;22.45;17.23;;;5.80;97.20;;;;;;1748072;28;20198;-65
2023/03/05 07:25:20;;;;;;;24.02;17.60;;;5.80;97.20;;;;;;1748110;28;20225;-67
2023/03/05 07:26:11;;;;;;;24.20;17.90;;;5.80;97.20;;;;;;1747328;28;20220;-66
2023/03/05 07:27:03;;;;;;;22.73;18.38;;;5.80;97.20;;;;;;1747634;28;20225;-66
2023/03/05 07:27:54;;;;;;;22.33;16.40;;;5.80;97.20;;;;;;1747678;28;20194;-66
2023/03/05 07:28:46;;;;;;;23.97;17.10;;;5.80;97.20;;;;;;1747725;28;20209;-66
2023/03/05 07:29:37;;;;;;;25.08;17.65;;;5.80;97.20;;;;;;1747972;28;20202;-66
2023/03/05 07:30:29;;;;;;;22.27;17.23;;;5.80;97.20;;;;;;1747825;28;20202;-66
2023/03/05 07:31:21;;;;;;;25.30;17.55;;;5.90;97.20;;;;;;1748023;28;20933;-66
2023/03/05 07:32:12;;;;;;;25.20;18.80;;;5.90;97.20;;;;;;1747959;28;20190;-66
2023/03/05 07:33:03;;;;;;;24.65;17.80;;;5.90;97.20;;;;;;1747732;28;20210;-66
2023/03/05 07:33:57;;;;;;;20.80;16.47;;;5.90;97.20;;;;;;1747580;28;20198;-67
2023/03/05 07:34:48;;;;;;;22.10;17.42;;;5.90;97.20;;;;;;1747892;28;20229;-67
2023/03/05 07:35:41;;;;;;;24.97;18.97;;;5.90;97.20;;;;;;1747574;28;20205;-66
2023/03/05 07:36:33;;;;;;;21.38;16.67;;;6.00;97.20;;;;;;1747572;28;20256;-66
2023/03/05 07:37:25;;;;;;;23.90;17.13;;;6.00;97.20;;;;;;1747853;28;20301;-66
2023/03/05 07:38:16;;;;;;;24.20;17.67;;;6.00;97.20;;;;;;1747721;28;20226;-67
2023/03/05 07:39:07;;;;;;;25.57;18.50;;;6.00;97.20;;;;;;1747691;28;20198;-66
2023/03/05 07:39:58;;;;;;;23.90;17.85;;;6.00;97.20;;;;;;1747642;28;20687;-66
2023/03/05 07:40:50;;;;;;;20.23;17.30;;;6.00;97.20;;;;;;1747560;28;20610;-66
2023/03/05 07:41:41;;;;;;;24.00;17.52;;;6.00;97.20;;;;;;1743330;28;20198;-66
2023/03/05 07:42:34;;;;;;;22.60;17.13;;;6.00;97.20;;;;;;1743586;28;20195;-66
2023/03/05 07:43:24;;;;;;;22.88;17.30;;;6.00;97.20;;;;;;1744559;28;20195;-67
2023/03/05 07:44:16;;;;;;;24.57;17.90;;;6.00;97.20;;;;;;1743768;28;20190;-66
2023/03/05 07:45:08;;;;;;;28.83;19.00;;;6.00;97.20;;;;;;1743275;28;20194;-65
2023/03/05 07:46:00;;;;;;;26.85;18.55;;;6.00;97.20;;;;;;1743815;28;20270;-66
2023/03/05 07:46:50;;;;;;;23.83;18.27;;;6.10;97.20;;;;;;1744374;28;20206;-66
2023/03/05 07:47:42;;;;;;;23.43;17.17;;;6.10;97.20;;;;;;1743297;28;20204;-65
2023/03/05 07:48:33;;;;;;;23.02;17.48;;;6.00;97.20;;;;;;1743110;28;20199;-66
2023/03/05 07:49:26;;;;;;;24.13;17.50;;;6.00;97.20;;;;;;1744506;28;20282;-66
2023/03/05 07:50:17;;;;;;;24.65;17.35;;;6.00;97.20;;;;;;1744263;28;20198;-66
2023/03/05 07:51:13;;;;;;;23.60;18.02;;;6.00;97.20;;;;;;1744724;28;20198;-67
2023/03/05 07:52:05;;;;;;;23.73;17.02;;;6.00;97.20;;;;;;1743430;28;20250;-66
2023/03/05 07:52:57;;;;;;;23.20;16.65;;;6.00;97.20;;;;;;1744201;28;20275;-67
2023/03/05 07:53:50;;;;;;;24.10;17.80;;;6.00;97.20;;;;;;1744368;28;20231;-66
2023/03/05 07:54:42;;;;;;;21.90;17.20;;;6.00;97.20;;;;;;1743228;28;20194;-66
2023/03/05 07:55:33;;;;;;;25.38;18.23;;;6.00;97.20;;;;;;1743642;28;20532;-66
2023/03/05 07:56:30;;;;;;;22.48;17.98;;;6.00;97.20;;;;;;1745721;28;20570;-66
2023/03/05 07:57:22;;;;;;;26.20;18.60;;;6.00;97.20;;;;;;1743335;28;20669;-66
2023/03/05 07:58:14;;;;;;;25.95;18.85;;;6.00;97.20;;;;;;1743679;28;20656;-66
2023/03/05 07:59:07;;;;;;;24.88;18.40;;;6.00;97.20;;;;;;1744351;28;20253;-66
2023/03/05 07:59:59;;;;;;;25.98;19.52;;;6.00;97.20;;;;;;1743457;28;20187;-66
2023/03/05 08:00:50;;;;;;;26.20;18.15;;;6.00;97.20;;;;;;1743083;28;20226;-66
2023/03/05 08:01:42;;;;;;;28.38;17.83;;;6.00;97.20;;;;;;1744654;28;20202;-68
2023/03/05 08:02:34;;;;;;;23.77;18.17;;;6.00;97.20;;;;;;1743319;28;20202;-66
2023/03/05 08:03:26;;;;;;;22.60;17.85;;;6.00;97.20;;;;;;1745130;28;20190;-65
2023/03/05 08:04:16;;;;;;;23.38;17.77;;;6.00;97.20;;;;;;1743914;28;20699;-66
2023/03/05 08:05:10;;;;;;;21.60;16.83;;;6.00;97.20;;;;;;1744641;28;20673;-65
2023/03/05 08:06:04;;;;;;;28.23;18.52;;;6.00;97.20;;;;;;1743073;28;20286;-66
2023/03/05 08:06:56;;;;;;;24.00;18.15;;;6.00;97.20;;;;;;1743888;28;20192;-66
2023/03/05 08:07:46;;;;;;;27.63;18.95;;;6.00;97.20;;;;;;1744606;28;20294;-66
2023/03/05 08:08:38;;;;;;;25.40;19.10;;;6.00;97.20;;;;;;1743470;28;20211;-66
2023/03/05 08:09:29;;;;;;;22.90;18.42;;;6.00;97.20;;;;;;1743015;28;20198;-66
2023/03/05 08:10:21;;;;;;;23.80;18.60;;;6.00;97.20;;;;;;1744662;28;20195;-66
2023/03/05 08:11:13;;;;;;;24.90;18.15;;;6.10;97.20;;;;;;1744287;28;20225;-66
2023/03/05 08:12:06;;;;;;;28.25;18.17;;;6.10;97.20;;;;;;1743329;28;20197;-65
2023/03/05 08:12:56;;;;;;;27.05;17.23;;;6.10;97.20;;;;;;1744112;28;20246;-66
2023/03/05 08:13:48;;;;;;;25.30;18.70;;;6.10;97.20;;;;;;1745157;28;20221;-68
2023/03/05 08:14:39;;;;;;;22.42;16.52;;;6.10;97.20;;;;;;1744554;28;20206;-65
2023/03/05 08:15:31;;;;;;;24.50;17.60;;;6.10;97.20;;;;;;1744595;28;20227;-65
2023/03/05 08:16:24;;;;;;;24.27;17.08;;;6.10;97.20;;;;;;1746722;28;20198;-65
2023/03/05 08:17:16;;;;;;;20.98;16.17;;;6.10;97.20;;;;;;1745125;28;20194;-66
2023/03/05 08:18:07;;;;;;;23.77;17.15;;;6.20;97.20;;;;;;1744553;28;20199;-65
2023/03/05 08:18:59;;;;;;;25.00;17.07;;;6.20;97.20;;;;;;1745472;28;20191;-65
2023/03/05 08:19:50;;;;;;;20.17;16.45;;;6.20;97.20;;;;;;1745772;28;20699;-66
2023/03/05 08:20:43;;;;;;;22.47;17.13;;;6.30;97.20;;;;;;1744571;28;20765;-64
2023/03/05 08:21:35;;;;;;;26.40;18.73;;;6.30;97.20;;;;;;1745030;28;20223;-66
2023/03/05 08:22:26;;;;;;;27.48;17.05;;;6.30;97.20;;;;;;1746042;28;20209;-66
2023/03/05 08:23:17;;;;;;;24.15;17.80;;;6.40;97.20;;;;;;1744887;28;20576;-66
2023/03/05 08:24:10;;;;;;;25.20;18.33;;;6.40;97.20;;;;;;1744234;28;20190;-66
2023/03/05 08:25:02;;;;;;;23.42;17.38;;;6.40;97.20;;;;;;1744523;28;20563;-66
2023/03/05 08:25:53;;;;;;;19.40;15.82;;;6.40;97.20;;;;;;1744500;28;20274;-68
2023/03/05 08:26:44;;;;;;;22.25;17.25;;;6.40;97.20;;;;;;1745220;28;20695;-69
2023/03/05 08:27:39;;;;;;;23.93;17.17;;;6.40;97.20;;;;;;1745746;28;20568;-67
2023/03/05 08:28:31;;;;;;;21.02;16.38;;;6.50;97.20;;;;;;1745831;28;20191;-66
2023/03/05 08:29:22;;;;;;;22.40;17.58;;;6.50;97.20;;;;;;1744338;28;20191;-66
2023/03/05 08:30:17;;;;;;;21.33;15.93;;;6.50;97.20;;;;;;1744654;28;20206;-66
2023/03/05 08:31:09;;;;;;;24.13;17.08;;;6.50;97.20;;;;;;1745896;28;20195;-66
2023/03/05 08:32:00;;;;;;;20.15;16.70;;;6.50;97.20;;;;;;1745898;28;20570;-67
2023/03/05 08:32:52;;;;;;;23.10;17.33;;;6.50;97.20;;;;;;1745583;28;20194;-65
2023/03/05 08:33:43;;;;;;;23.30;17.98;;;6.50;97.20;;;;;;1744295;28;20205;-67
2023/03/05 08:34:35;;;;;;;23.93;17.80;;;6.60;97.20;;;;;;1744548;28;20234;-67
2023/03/05 08:35:26;;;;;;;20.80;15.93;;;6.60;97.20;;;;;;1745716;28;20711;-66
2023/03/05 08:36:19;;;;;;;23.30;16.90;;;6.60;97.20;;;;;;1744213;28;20702;-67
2023/03/05 08:37:09;;;;;;;21.40;16.10;;;6.60;97.20;;;;;;1746696;28;20195;-66
2023/03/05 08:38:01;;;;;;;21.03;16.33;;;6.60;97.20;;;;;;1744525;28;20194;-67
2023/03/05 08:38:52;;;;;;;23.02;16.42;;;6.60;97.20;;;;;;1746962;28;20198;-66
2023/03/05 08:39:43;;;;;;;23.63;16.80;;;6.60;97.20;;;;;;1744166;28;20195;-66
2023/03/05 08:40:34;;;;;;;19.42;16.10;;;6.60;97.20;;;;;;1744927;28;20211;-67
2023/03/05 08:41:26;;;;;;;20.60;16.63;;;6.70;97.20;;;;;;1745841;28;20187;-65
2023/03/05 08:42:17;;;;;;;19.67;16.20;;;6.70;97.20;;;;;;1744773;28;20778;-66
2023/03/05 08:43:08;;;;;;;25.00;16.83;;;6.70;97.20;;;;;;1744349;28;20198;-66
2023/03/05 08:43:59;;;;;;;22.50;16.48;;;6.70;97.20;;;;;;1745470;28;20227;-68
2023/03/05 08:44:51;;;;;;;20.43;15.90;;;6.80;97.20;;;;;;1745403;28;20207;-66
2023/03/05 08:45:42;;;;;;;22.23;16.45;;;6.80;97.20;;;;;;1744104;28;20436;-66
2023/03/05 08:46:34;;;;;;;22.93;16.50;;;6.80;97.20;;;;;;1744284;28;20198;-66
2023/03/05 08:47:26;;;;;;;21.80;16.35;;;6.80;97.20;;;;;;1745686;28;20203;-66
2023/03/05 08:48:17;;;;;;;22.35;15.68;;;6.80;97.20;;;;;;1744721;28;20248;-66
2023/03/05 08:49:09;;;;;;;22.33;16.00;;;6.90;97.20;;;;;;1744163;28;20679;-65
2023/03/05 08:50:01;;;;;;;22.10;16.70;;;6.90;97.20;;;;;;1745423;28;20210;-67
2023/03/05 08:50:52;;;;;;;22.60;17.20;;;6.90;97.20;;;;;;1745434;28;20254;-66
2023/03/05 08:51:45;;;;;;;22.47;15.33;;;6.90;97.20;;;;;;1746176;28;20199;-65
2023/03/05 08:52:35;;;;;;;20.33;16.13;;;7.00;97.20;;;;;;1747813;28;20830;-65
2023/03/05 08:53:27;;;;;;;22.20;16.03;;;7.00;97.20;;;;;;1744276;28;20580;-66
2023/03/05 08:54:18;;;;;;;19.77;15.35;;;7.00;97.20;;;;;;1745035;28;20202;-67
2023/03/05 08:55:12;;;;;;;21.47;15.70;;;7.10;97.20;;;;;;1745491;28;20195;-66
2023/03/05 08:56:03;;;;;;;24.42;16.27;;;7.10;97.20;;;;;;1743983;28;20251;-66
2023/03/05 08:56:54;;;;;;;19.63;15.40;;;7.10;97.20;;;;;;1744874;28;20229;-66
2023/03/05 08:57:45;;;;;;;20.63;15.10;;;7.10;97.20;;;;;;1745671;28;20438;-67
2023/03/05 08:58:37;;;;;;;21.37;16.40;;;7.10;97.20;;;;;;1744832;28;20190;-65
2023/03/05 08:59:28;;;;;;;21.83;16.10;;;7.10;97.20;;;;;;1744016;28;20206;-66
2023/03/05 09:00:20;;;;;;;19.75;16.40;;;7.20;97.20;;;;;;1745126;28;20198;-67
2023/03/05 09:01:11;;;;;;;22.92;17.17;;;7.20;97.20;;;;;;1745517;28;20647;-66
2023/03/05 09:02:03;;;;;;;19.33;15.35;;;7.10;97.20;;;;;;1744799;28;20794;-67
2023/03/05 09:02:54;;;;;;;21.38;15.80;;;7.20;97.20;;;;;;1745661;28;20194;-66
2023/03/05 09:03:45;;;;;;;19.13;15.83;;;7.20;97.20;;;;;;1745629;28;20207;-66
2023/03/05 09:04:36;;;;;;;19.67;15.25;;;7.20;97.20;;;;;;1744645;28;20203;-66
2023/03/05 09:05:28;;;;;;;21.38;15.85;;;7.20;97.20;;;;;;1744133;28;20659;-66
2023/03/05 09:06:19;;;;;;;19.65;15.13;;;7.20;97.20;;;;;;1744923;28;20202;-66
2023/03/05 09:07:12;;;;;;;19.90;14.70;;;7.30;97.20;;;;;;1745562;28;20192;-65
2023/03/05 09:08:03;;;;;;;21.80;16.70;;;7.30;97.20;;;;;;1744328;28;20661;-65
2023/03/05 09:08:55;;;;;;;17.30;15.00;;;7.30;97.20;;;;;;1744532;28;20221;-66
2023/03/05 09:09:46;;;;;;;22.52;16.30;;;7.30;97.20;;;;;;1745381;28;20226;-65
2023/03/05 09:10:38;;;;;;;20.10;15.13;;;7.40;97.20;;;;;;1744633;28;20735;-66
2023/03/05 09:11:29;;;;;;;19.92;17.20;;;7.40;97.20;;;;;;1744287;28;20195;-66
2023/03/05 09:12:21;;;;;;;19.90;15.00;;;7.50;97.20;;;;;;1745555;28;20198;-66
2023/03/05 09:13:11;;;;;;;19.35;14.80;;;7.50;97.20;;;;;;1745437;28;20197;-66
2023/03/05 09:14:04;;;;;;;21.90;16.37;;;7.50;97.20;;;;;;1744260;28;20221;-66
2023/03/05 09:14:55;;;;;;;21.42;15.63;;;7.50;97.20;;;;;;1744477;28;20775;-66
2023/03/05 09:15:54;;;;;;;18.60;14.63;;;7.50;97.20;;;;;;1745077;28;20565;-65
2023/03/05 09:16:44;;;;;;;19.35;14.75;;;7.60;97.20;;;;;;1743805;28;20617;-66
2023/03/05 09:17:37;;;;;;;19.70;14.60;;;7.60;97.20;;;;;;1744859;28;20725;-66
2023/03/05 09:18:28;;;;;;;18.40;14.30;;;7.70;97.20;;;;;;1745598;28;20199;-66
2023/03/05 09:19:19;;;;;;;19.23;15.32;;;7.70;97.20;;;;;;1744339;28;20195;-65
2023/03/05 09:20:12;;;;;;;18.38;14.52;;;7.70;97.20;;;;;;1743854;28;20205;-66
2023/03/05 09:21:07;;;;;;;21.05;15.30;;;7.70;97.20;;;;;;1744173;28;20282;-66
2023/03/05 09:21:58;;;;;;;20.58;15.77;;;7.70;97.20;;;;;;1745165;28;20196;-65
2023/03/05 09:22:51;;;;;;;18.57;14.90;;;7.70;97.20;;;;;;1745729;28;20191;-66
2023/03/05 09:23:42;;;;;;;22.52;15.45;;;7.70;97.20;;;;;;1744169;28;20448;-67
2023/03/05 09:24:34;;;;;;;22.13;16.33;;;7.70;97.20;;;;;;1744057;28;20191;-66
2023/03/05 09:25:26;;;;;;;23.85;14.45;;;7.80;97.20;;;;;;1745274;28;20884;-67
2023/03/05 09:26:19;;;;;;;22.60;16.27;;;7.80;97.20;;;;;;1744817;28;20585;-66
2023/03/05 09:27:10;;;;;;;19.85;15.10;;;7.90;97.20;;;;;;1745577;28;20559;-66
2023/03/05 09:28:01;;;;;;;18.13;14.80;;;7.90;97.20;;;;;;1744371;28;20795;-65
2023/03/05 09:28:52;;;;;;;21.63;15.55;;;7.90;97.20;;;;;;1743892;28;20453;-66
2023/03/05 09:29:44;;;;;;;22.00;16.17;;;8.00;97.20;;;;;;1744049;28;20202;-66
2023/03/05 09:30:35;;;;;;;22.88;16.05;;;8.00;97.20;;;;;;1744231;28;20233;-64
2023/03/05 09:31:26;;;;;;;18.93;15.57;;;8.00;97.20;;;;;;1745528;28;20206;-66
2023/03/05 09:32:17;;;;;;;22.95;16.25;;;8.10;97.20;;;;;;1744542;28;20340;-66
2023/03/05 09:33:09;;;;;;;21.60;16.10;;;8.10;97.20;;;;;;1744274;28;20190;-66
2023/03/05 09:34:00;;;;;;;18.10;15.73;;;8.10;97.20;;;;;;1745329;28;20223;-66
2023/03/05 09:34:52;;;;;;;20.23;15.30;;;8.20;97.20;;;;;;1745407;28;20210;-65
2023/03/05 09:35:42;;;;;;;19.00;14.70;;;8.20;97.20;;;;;;1743548;28;20441;-66
2023/03/05 09:36:34;;;;;;;19.37;15.63;;;8.20;97.20;;;;;;1746400;28;20201;-66
2023/03/05 09:37:25;;;;;;;21.33;15.75;;;8.20;97.20;;;;;;1745359;28;20199;-66
2023/03/05 09:38:20;;;;;;;16.50;14.40;;;8.30;97.20;;;;;;1744749;28;20190;-66
2023/03/05 09:39:10;;;;;;;19.45;15.30;;;8.30;97.20;;;;;;1744013;28;20444;-66
2023/03/05 09:40:03;;;;;;;21.00;15.63;;;8.40;97.20;;;;;;1743830;28;20666;-67
2023/03/05 09:41:02;;;;;;;21.38;15.48;;;8.40;97.20;;;;;;1744093;28;20345;-66
2023/03/05 09:42:24;;;;;;;18.92;15.23;;;8.40;97.20;;;;;;1745250;28;20588;-66
2023/03/05 09:43:30;;;;;;;19.40;15.23;;;8.40;97.20;;;;;;1728367;28;20207;-65
2023/03/05 09:44:31;;;;;;;22.83;16.00;;;8.40;97.20;;;;;;1744022;28;20673;-66
2023/03/05 09:45:25;;;;;;;18.42;16.05;;;8.50;97.20;;;;;;1743781;28;20226;-66
2023/03/05 09:46:26;;;;;;;21.65;16.70;;;8.50;97.20;;;;;;1744228;28;20191;-66
2023/03/05 09:47:44;;;;;;;20.95;15.68;;;8.50;97.20;;;;;;1744852;28;20206;-66
2023/03/05 09:48:48;;;;;;;22.90;15.10;;;8.50;97.20;;;;;;1746399;28;20222;-66
2023/03/05 09:49:50;;;;;;;18.05;16.08;;;8.50;97.20;;;;;;1744999;28;20637;-66
2023/03/05 09:50:43;;;;;;;20.70;15.23;;;8.60;97.20;;;;;;1743688;28;20218;-65
2023/03/05 09:51:39;;;;;;;23.02;16.42;;;8.60;97.20;;;;;;1744420;28;20922;-66
2023/03/05 09:52:37;;;;;;;19.85;15.27;;;8.60;97.20;;;;;;1745399;28;20207;-66
2023/03/05 09:53:38;;;;;;;22.73;16.30;;;8.60;97.20;;;;;;1743907;28;20294;-66
2023/03/05 09:54:36;;;;;;;20.83;15.50;;;8.70;97.20;;;;;;1743924;28;20655;-66
2023/03/05 09:55:33;;;;;;;20.27;16.02;;;8.70;97.20;;;;;;1743625;28;20217;-66
2023/03/05 09:56:28;;;;;;;20.52;16.00;;;8.70;97.20;;;;;;1744154;28;20805;-66
2023/03/05 09:57:24;;;;;;;23.00;16.25;;;8.60;97.20;;;;;;1745254;28;20187;-65
2023/03/05 09:58:17;;;;;;;28.33;16.05;;;8.60;97.20;;;;;;1744644;28;20234;-66
2023/03/05 09:59:20;;;;;;;19.50;17.02;;;8.60;97.20;;;;;;1743917;28;20194;-66
2023/03/05 10:00:28;;;;;;;20.23;17.33;;;8.60;97.20;;;;;;1743543;28;20204;-66
2023/03/05 10:01:23;;;;;;;20.65;17.50;;;8.60;97.20;;;;;;1744041;28;20187;-67
2023/03/05 10:02:18;;;;;;;20.90;16.95;;;8.60;97.20;;;;;;1745398;28;20195;-65
2023/03/05 10:03:15;;;;;;;21.45;17.02;;;8.60;97.20;;;;;;1746324;28;20676;-66
2023/03/05 10:04:10;;;;;;;22.25;17.88;;;8.60;97.20;;;;;;1743959;28;20651;-65
2023/03/05 10:05:08;;;;;;;17.92;16.00;;;8.50;97.20;;;;;;1743854;28;20187;-66
2023/03/05 10:06:05;;;;;;;19.13;15.35;;;8.50;97.20;;;;;;1744548;28;20219;-66
2023/03/05 10:07:00;;;;;;;22.05;16.95;;;8.50;97.20;;;;;;1746256;28;20195;-65
2023/03/05 10:07:56;;;;;;;19.73;16.50;;;8.40;97.20;;;;;;1746141;28;20226;-66
2023/03/05 10:08:54;;;;;;;19.55;15.38;;;8.40;97.20;;;;;;1745718;28;20183;-66
2023/03/05 10:09:50;;;;;;;22.98;16.20;;;8.40;97.20;;;;;;1745350;28;20203;-67
2023/03/05 10:10:45;;;;;;;22.70;16.40;;;8.40;97.20;;;;;;1743642;28;20323;-67
2023/03/05 10:11:44;;;;;;;25.60;17.73;;;8.40;97.20;;;;;;1741572;28;20203;-66
2023/03/05 10:12:41;;;;;;;28.98;16.85;;;8.30;97.20;;;;;;1741557;28;20200;-66
2023/03/05 10:13:39;;;;;;;21.65;16.77;;;8.30;97.20;;;;;;1741547;28;20238;-66
2023/03/05 10:14:35;;;;;;;18.50;16.50;;;8.30;97.20;;;;;;1741522;28;20202;-66
2023/03/05 10:15:36;;;;;;;20.48;15.95;;;8.30;97.20;;;;;;1741237;28;20234;-66
2023/03/05 10:16:52;;;;;;;19.60;16.23;;;8.30;97.20;;;;;;1741853;28;20219;-66
2023/03/05 10:18:12;;;;;;;21.90;16.20;;;8.20;97.20;;;;;;1748500;28;20248;-65
2023/03/05 10:19:10;;;;;;;23.35;17.85;;;8.20;97.20;;;;;;1748452;28;20858;-65
2023/03/05 10:20:30;;;;;;;21.02;15.75;;;8.20;97.20;;;;;;1748308;28;20233;-66
2023/03/05 10:21:30;;;;;;;23.38;16.85;;;8.20;97.20;;;;;;1748181;28;20238;-66
2023/03/05 10:22:28;;;;;;;22.23;15.82;;;8.20;97.20;;;;;;1748320;28;20198;-66
2023/03/05 10:23:24;;;;;;;20.88;16.20;;;8.20;97.20;;;;;;1748252;28;20742;-66
2023/03/05 10:24:25;;;;;;;22.33;18.23;;;8.10;97.20;;;;;;1748356;28;20202;-66
2023/03/05 10:25:22;;;;;;;20.83;16.27;;;8.10;97.20;;;;;;1748165;28;20664;-67
2023/03/05 10:26:30;;;;;;;21.60;17.23;;;8.10;97.20;;;;;;1747752;28;20195;-66
2023/03/05 10:27:32;;;;;;;20.27;16.25;;;8.10;97.20;;;;;;1741350;28;20207;-66
2023/03/05 10:28:34;;;;;;;19.55;16.60;;;8.00;97.20;;;;;;1741500;28;20195;-66
2023/03/05 10:29:45;;;;;;;20.55;17.17;;;8.00;97.20;;;;;;1741430;28;20210;-66
2023/03/05 10:30:56;;;;;;;21.48;16.15;;;8.00;97.20;;;;;;1743164;28;20261;-65
2023/03/05 10:32:03;;;;;;;27.90;17.40;;;8.00;97.20;;;;;;1744982;28;20203;-65
2023/03/05 10:33:01;;;;;;;20.52;16.17;;;8.00;97.20;;;;;;1744063;28;20199;-66
2023/03/05 10:34:04;;;;;;;21.13;16.50;;;8.00;97.20;;;;;;1743961;28;20195;-65